createdAt,value
2022-10-05T00:01:59.768Z,8.30
2022-10-05T00:04:29.280Z,8.30
2022-10-05T00:07:02.298Z,8.30
2022-10-05T00:09:33.300Z,8.40
2022-10-05T00:12:07.341Z,8.40
2022-10-05T00:14:37.744Z,8.40
2022-10-05T00:17:08.437Z,8.50
2022-10-05T00:19:39.980Z,8.50
2022-10-05T00:22:13.459Z,8.50
2022-10-05T00:24:42.053Z,8.50
2022-10-05T00:27:20.058Z,8.50
2022-10-05T00:29:50.384Z,8.50
2022-10-05T00:32:20.761Z,8.50
2022-10-05T00:34:49.598Z,8.50
2022-10-05T00:37:18.418Z,8.50
2022-10-05T00:39:47.698Z,8.50
2022-10-05T00:42:38.747Z,8.40
2022-10-05T00:45:10.977Z,8.40
2022-10-05T00:47:55.596Z,8.30
2022-10-05T00:50:45.108Z,8.30
2022-10-05T00:53:26.930Z,8.20
2022-10-05T00:56:02.587Z,8.30
2022-10-05T00:58:46.204Z,8.30
2022-10-05T01:01:17.932Z,8.30
2022-10-05T01:03:59.510Z,8.40
2022-10-05T01:06:37.378Z,8.40
2022-10-05T01:09:15.602Z,8.40
2022-10-05T01:11:50.843Z,8.40
2022-10-05T01:14:24.086Z,8.50
2022-10-05T01:16:57.476Z,8.50
2022-10-05T01:19:45.705Z,8.50
2022-10-05T01:22:37.064Z,8.60
2022-10-05T01:25:22.298Z,8.60
2022-10-05T01:28:02.239Z,8.60
2022-10-05T01:30:37.751Z,8.70
2022-10-05T01:33:13.006Z,8.70
2022-10-05T01:35:53.907Z,8.70
2022-10-05T01:38:35.963Z,8.70
2022-10-05T01:41:14.710Z,8.70
2022-10-05T01:43:50.572Z,8.80
2022-10-05T01:46:27.229Z,8.80
2022-10-05T01:49:09.366Z,8.80
2022-10-05T01:51:44.977Z,8.80
2022-10-05T01:54:24.028Z,8.80
2022-10-05T01:57:07.686Z,8.80
2022-10-05T01:59:52.978Z,8.90
2022-10-05T02:02:25.115Z,8.90
2022-10-05T02:05:02.261Z,8.90
2022-10-05T02:07:35.626Z,8.90
2022-10-05T02:10:10.369Z,8.80
2022-10-05T02:12:40.144Z,8.80
2022-10-05T02:15:15.869Z,8.80
2022-10-05T02:17:48.406Z,8.70
2022-10-05T02:20:23.881Z,8.60
2022-10-05T02:22:55.682Z,8.60
2022-10-05T02:25:28.452Z,8.40
2022-10-05T02:28:01.215Z,8.40
2022-10-05T02:30:33.131Z,8.40
2022-10-05T02:33:06.441Z,8.40
2022-10-05T02:35:35.013Z,8.40
2022-10-05T02:38:12.595Z,8.40
2022-10-05T02:40:49.267Z,8.40
2022-10-05T02:43:27.734Z,8.40
2022-10-05T02:46:09.365Z,8.40
2022-10-05T02:48:46.419Z,8.30
2022-10-05T02:51:21.781Z,8.30
2022-10-05T02:54:00.520Z,8.20
2022-10-05T02:56:37.866Z,8.20
2022-10-05T02:59:12.538Z,8.20
2022-10-05T03:01:49.859Z,8.20
2022-10-05T03:04:30.129Z,8.20
2022-10-05T03:07:09.014Z,8.20
2022-10-05T03:09:43.637Z,8.20
2022-10-05T03:12:22.608Z,8.20
2022-10-05T03:15:02.074Z,8.20
2022-10-05T03:17:36.455Z,8.20
2022-10-05T03:20:17.114Z,8.20
2022-10-05T03:22:51.359Z,8.20
2022-10-05T03:25:42.648Z,8.20
2022-10-05T03:28:17.329Z,8.30
2022-10-05T03:30:54.519Z,8.30
2022-10-05T03:33:35.510Z,8.30
2022-10-05T03:36:12.798Z,8.40
2022-10-05T03:38:48.368Z,8.40
2022-10-05T03:41:21.730Z,8.40
2022-10-05T03:44:26.548Z,8.40
2022-10-05T03:47:10.217Z,8.40
2022-10-05T03:49:53.217Z,8.50
2022-10-05T03:52:28.026Z,8.50
2022-10-05T03:55:01.640Z,8.40
2022-10-05T03:57:33.690Z,8.40
2022-10-05T04:00:06.002Z,8.40
2022-10-05T04:02:40.395Z,8.40
2022-10-05T04:05:18.388Z,8.40
2022-10-05T04:07:51.611Z,8.40
2022-10-05T04:10:26.615Z,8.40
2022-10-05T04:13:00.379Z,8.40
2022-10-05T04:15:35.159Z,8.40
2022-10-05T04:18:07.525Z,8.40
2022-10-05T04:20:44.273Z,8.40
2022-10-05T04:23:22.819Z,8.40
2022-10-05T04:25:55.308Z,8.40
2022-10-05T04:28:32.353Z,8.40
2022-10-05T04:31:05.209Z,8.40
2022-10-05T04:33:34.410Z,8.40
2022-10-05T04:36:14.936Z,8.40
2022-10-05T04:38:54.156Z,8.40
2022-10-05T04:41:57.318Z,8.40
2022-10-05T04:44:59.254Z,8.30
2022-10-05T04:47:48.842Z,8.40
2022-10-05T04:50:33.750Z,8.30
2022-10-05T04:53:11.565Z,8.30
2022-10-05T04:55:50.931Z,8.20
2022-10-05T04:58:28.969Z,8.20
2022-10-05T05:01:10.159Z,8.20
2022-10-05T05:04:05.038Z,8.10
2022-10-05T05:06:40.030Z,8.10
2022-10-05T05:09:44.465Z,8.20
2022-10-05T05:12:25.887Z,8.20
2022-10-05T05:15:23.871Z,8.30
2022-10-05T05:18:12.320Z,8.40
2022-10-05T05:20:53.362Z,8.50
2022-10-05T05:23:29.228Z,8.60
2022-10-05T05:26:09.539Z,8.70
2022-10-05T05:28:44.743Z,8.90
2022-10-05T05:31:20.174Z,8.90
2022-10-05T05:34:02.246Z,9.00
2022-10-05T05:36:50.805Z,9.00
2022-10-05T05:39:27.440Z,9.10
2022-10-05T05:42:12.582Z,9.20
2022-10-05T05:44:46.679Z,9.20
2022-10-05T05:47:21.477Z,9.30
2022-10-05T05:50:07.123Z,9.30
2022-10-05T05:52:40.747Z,9.40
2022-10-05T05:55:19.301Z,9.50
2022-10-05T05:57:54.581Z,9.60
2022-10-05T06:00:26.019Z,9.70
2022-10-05T06:02:59.237Z,9.80
2022-10-05T06:05:35.143Z,9.90
2022-10-05T06:08:12.282Z,10.00
2022-10-05T06:10:46.788Z,10.10
2022-10-05T06:13:21.955Z,10.20
2022-10-05T06:15:55.585Z,10.30
2022-10-05T06:18:25.639Z,10.50
2022-10-05T06:20:59.135Z,10.50
2022-10-05T06:23:34.554Z,10.60
2022-10-05T06:26:15.279Z,10.70
2022-10-05T06:28:49.094Z,10.80
2022-10-05T06:31:25.796Z,10.80
2022-10-05T06:33:58.449Z,11.00
2022-10-05T06:36:41.760Z,11.00
2022-10-05T06:39:29.202Z,11.20
2022-10-05T06:42:13.854Z,11.30
2022-10-05T06:44:54.084Z,11.40
2022-10-05T06:47:31.561Z,11.50
2022-10-05T06:50:10.617Z,11.60
2022-10-05T06:52:51.791Z,11.70
2022-10-05T06:55:31.835Z,11.90
2022-10-05T06:58:13.150Z,12.00
2022-10-05T07:00:51.756Z,12.10
2022-10-05T07:03:29.236Z,12.10
2022-10-05T07:06:05.351Z,12.20
2022-10-05T07:08:51.723Z,12.30
2022-10-05T07:11:32.873Z,12.40
2022-10-05T07:14:15.704Z,12.50
2022-10-05T07:17:06.744Z,12.60
2022-10-05T07:19:42.729Z,12.70
2022-10-05T07:22:37.328Z,12.70
2022-10-05T07:25:13.770Z,12.60
2022-10-05T07:27:51.067Z,12.60
2022-10-05T07:30:21.031Z,12.50
2022-10-05T07:33:00.651Z,12.50
2022-10-05T07:35:59.352Z,12.70
2022-10-05T07:38:34.117Z,12.90
2022-10-05T07:41:08.393Z,13.10
2022-10-05T07:44:01.663Z,13.30
2022-10-05T07:46:41.776Z,13.50
2022-10-05T07:49:19.597Z,13.70
2022-10-05T07:51:52.722Z,13.90
2022-10-05T07:54:26.809Z,14.20
2022-10-05T07:57:01.848Z,14.20
2022-10-05T07:59:37.038Z,14.30
2022-10-05T08:02:15.930Z,14.40
2022-10-05T08:04:57.150Z,14.50
2022-10-05T08:07:27.077Z,14.60
2022-10-05T08:10:01.261Z,14.70
2022-10-05T08:12:35.901Z,14.80
2022-10-05T08:15:11.086Z,14.80
2022-10-05T08:17:49.880Z,14.80
2022-10-05T08:20:33.666Z,14.70
2022-10-05T08:23:08.259Z,14.60
2022-10-05T08:25:45.921Z,14.50
2022-10-05T08:28:21.715Z,14.50
2022-10-05T08:31:04.946Z,14.50
2022-10-05T08:33:46.360Z,14.80
2022-10-05T08:36:23.102Z,15.10
2022-10-05T08:38:56.332Z,15.40
2022-10-05T08:42:01.495Z,15.70
2022-10-05T08:45:08.272Z,15.90
2022-10-05T08:48:06.151Z,16.00
2022-10-05T08:50:54.060Z,16.10
2022-10-05T08:53:33.798Z,16.10
2022-10-05T08:56:31.739Z,16.10
2022-10-05T08:59:23.204Z,16.10
2022-10-05T09:02:15.433Z,16.20
2022-10-05T09:05:14.640Z,16.20
2022-10-05T09:08:20.889Z,16.30
2022-10-05T09:11:05.414Z,16.50
2022-10-05T09:14:08.557Z,16.60
2022-10-05T09:17:00.181Z,16.70
2022-10-05T09:20:11.903Z,16.70
2022-10-05T09:23:00.335Z,16.70
2022-10-05T09:25:44.059Z,16.70
2022-10-05T09:28:26.382Z,16.60
2022-10-05T09:31:04.650Z,16.50
2022-10-05T09:34:01.933Z,16.50
2022-10-05T09:37:07.575Z,16.50
2022-10-05T09:40:30.991Z,16.50
2022-10-05T09:43:37.097Z,16.50
2022-10-05T09:46:39.810Z,16.60
2022-10-05T09:49:33.095Z,16.60
2022-10-05T09:52:19.050Z,16.70
2022-10-05T09:55:28.876Z,16.80
2022-10-05T09:58:33.616Z,16.80
2022-10-05T10:01:33.069Z,17.00
2022-10-05T10:04:39.688Z,16.90
2022-10-05T10:07:28.712Z,17.00
2022-10-05T10:10:30.750Z,17.10
2022-10-05T10:13:22.962Z,17.20
2022-10-05T10:16:10.141Z,17.20
2022-10-05T10:19:03.155Z,17.10
2022-10-05T10:22:03.290Z,16.90
2022-10-05T10:25:08.637Z,16.60
2022-10-05T10:28:08.250Z,16.50
2022-10-05T10:30:57.088Z,16.60
2022-10-05T10:33:47.886Z,16.90
2022-10-05T10:36:24.004Z,17.40
2022-10-05T10:39:01.650Z,17.80
2022-10-05T10:41:53.590Z,18.10
2022-10-05T10:45:06.861Z,18.30
2022-10-05T10:47:48.625Z,18.40
2022-10-05T10:50:57.053Z,18.40
2022-10-05T10:53:52.322Z,18.40
2022-10-05T10:56:41.131Z,18.50
2022-10-05T10:59:44.446Z,18.60
2022-10-05T11:02:49.840Z,18.80
2022-10-05T11:05:58.235Z,19.00
2022-10-05T11:08:59.778Z,19.20
2022-10-05T11:11:53.674Z,19.30
2022-10-05T11:14:45.690Z,19.40
2022-10-05T11:17:43.409Z,19.40
2022-10-05T11:20:44.995Z,19.30
2022-10-05T11:23:51.200Z,19.30
2022-10-05T11:26:33.901Z,19.30
2022-10-05T11:29:42.525Z,19.30
2022-10-05T11:32:44.019Z,19.40
2022-10-05T11:35:41.264Z,19.30
2022-10-05T11:38:33.894Z,19.20
2022-10-05T11:41:22.740Z,19.10
2022-10-05T11:44:36.142Z,19.20
2022-10-05T11:47:11.783Z,19.20
2022-10-05T11:49:44.456Z,19.20
2022-10-05T11:52:18.153Z,19.20
2022-10-05T11:55:10.996Z,19.10
2022-10-05T11:57:49.535Z,19.10
2022-10-05T12:00:21.067Z,19.10
2022-10-05T12:03:12.553Z,19.10
2022-10-05T12:05:56.211Z,19.10
2022-10-05T12:08:37.299Z,19.20
2022-10-05T12:11:17.216Z,19.20
2022-10-05T12:13:53.971Z,19.30
2022-10-05T12:16:27.758Z,19.30
2022-10-05T12:19:01.987Z,19.40
2022-10-05T12:21:37.058Z,19.50
2022-10-05T12:24:15.505Z,19.60
2022-10-05T12:26:51.111Z,19.60
2022-10-05T12:29:27.106Z,19.50
2022-10-05T12:32:03.150Z,19.50
2022-10-05T12:34:44.575Z,19.50
2022-10-05T12:37:30.613Z,19.60
2022-10-05T12:40:06.331Z,19.60
2022-10-05T12:42:43.028Z,19.70
2022-10-05T12:45:23.689Z,19.70
2022-10-05T12:48:08.339Z,19.70
2022-10-05T12:50:42.298Z,19.70
2022-10-05T12:53:27.594Z,19.60
2022-10-05T12:56:05.525Z,19.50
2022-10-05T12:58:44.788Z,19.50
2022-10-05T13:01:26.260Z,19.50
2022-10-05T13:04:00.969Z,19.50
2022-10-05T13:06:41.363Z,19.40
2022-10-05T13:09:14.852Z,19.40
2022-10-05T13:11:49.627Z,19.30
2022-10-05T13:14:44.917Z,19.20
2022-10-05T13:17:24.985Z,19.10
2022-10-05T13:19:58.999Z,19.00
2022-10-05T13:22:37.798Z,18.90
2022-10-05T13:25:26.044Z,18.90
2022-10-05T13:28:12.011Z,18.80
2022-10-05T13:30:47.339Z,18.90
2022-10-05T13:33:21.712Z,18.90
2022-10-05T13:35:55.305Z,18.80
2022-10-05T13:38:36.923Z,18.80
2022-10-05T13:41:16.364Z,18.80
2022-10-05T13:43:53.098Z,18.80
2022-10-05T13:46:36.457Z,18.70
2022-10-05T13:49:21.520Z,18.60
2022-10-05T13:51:59.327Z,18.50
2022-10-05T13:54:42.185Z,18.40
2022-10-05T13:57:23.021Z,18.30
2022-10-05T13:59:56.810Z,18.20
2022-10-05T14:02:31.463Z,18.10
2022-10-05T14:05:02.222Z,18.00
2022-10-05T14:07:38.288Z,17.80
2022-10-05T14:10:13.606Z,17.70
2022-10-05T14:12:46.061Z,17.70
2022-10-05T14:15:24.479Z,17.60
2022-10-05T14:17:54.613Z,17.40
2022-10-05T14:20:28.388Z,17.40
2022-10-05T14:23:00.879Z,17.30
2022-10-05T14:25:30.727Z,17.30
2022-10-05T14:28:05.550Z,17.20
2022-10-05T14:30:35.221Z,17.20
2022-10-05T14:33:17.406Z,17.10
2022-10-05T14:35:49.517Z,17.10
2022-10-05T14:38:22.117Z,17.00
2022-10-05T14:41:18.873Z,17.00
2022-10-05T14:43:53.281Z,16.90
2022-10-05T14:46:28.441Z,16.80
2022-10-05T14:49:22.260Z,16.70
2022-10-05T14:51:51.971Z,16.60
2022-10-05T14:54:45.935Z,16.50
2022-10-05T14:57:30.260Z,16.40
2022-10-05T15:00:10.802Z,16.30
2022-10-05T15:03:05.590Z,16.30
2022-10-05T15:05:41.502Z,16.20
2022-10-05T15:08:25.017Z,16.20
2022-10-05T15:11:02.078Z,16.10
2022-10-05T15:13:38.610Z,16.10
2022-10-05T15:16:15.623Z,16.00
2022-10-05T15:18:50.570Z,16.00
2022-10-05T15:21:39.649Z,15.80
2022-10-05T15:24:15.955Z,15.80
2022-10-05T15:26:56.527Z,15.70
2022-10-05T15:29:52.369Z,15.60
2022-10-05T15:32:41.762Z,15.60
2022-10-05T15:35:45.723Z,15.50
2022-10-05T15:38:25.402Z,15.50
2022-10-05T15:41:11.202Z,15.40
2022-10-05T15:43:55.042Z,15.40
2022-10-05T15:46:34.545Z,15.30
2022-10-05T15:49:14.861Z,15.30
2022-10-05T15:52:01.742Z,15.10
2022-10-05T15:55:12.006Z,15.10
2022-10-05T15:57:46.747Z,14.90
2022-10-05T16:00:17.482Z,14.80
2022-10-05T16:02:52.838Z,14.70
2022-10-05T16:05:51.122Z,14.60
2022-10-05T16:08:54.434Z,14.60
2022-10-05T16:11:37.600Z,14.50
2022-10-05T16:14:18.530Z,14.40
2022-10-05T16:16:59.742Z,14.30
2022-10-05T16:19:35.730Z,14.30
2022-10-05T16:22:16.117Z,14.30
2022-10-05T16:25:04.903Z,14.30
2022-10-05T16:27:47.423Z,14.20
2022-10-05T16:30:21.045Z,14.20
2022-10-05T16:32:59.483Z,14.20
2022-10-05T16:35:36.692Z,14.20
2022-10-05T16:38:21.849Z,14.20
2022-10-05T16:41:02.381Z,14.10
2022-10-05T16:43:45.014Z,14.10
2022-10-05T16:46:27.830Z,14.00
2022-10-05T16:49:06.649Z,14.00
2022-10-05T16:51:43.385Z,13.90
2022-10-05T16:54:19.758Z,13.90
2022-10-05T16:56:53.053Z,13.90
2022-10-05T16:59:55.642Z,13.80
2022-10-05T17:02:54.597Z,13.80
2022-10-05T17:05:56.018Z,13.80
2022-10-05T17:08:50.643Z,13.70
2022-10-05T17:11:34.491Z,13.60
2022-10-05T17:14:21.529Z,13.60
2022-10-05T17:17:07.338Z,13.60
2022-10-05T17:19:48.658Z,13.60
2022-10-05T17:22:26.882Z,13.50
2022-10-05T17:25:03.264Z,13.50
2022-10-05T17:27:35.762Z,13.40
2022-10-05T17:30:37.426Z,13.30
2022-10-05T17:33:29.264Z,13.30
2022-10-05T17:36:19.410Z,13.20
2022-10-05T17:38:51.062Z,13.20
2022-10-05T17:41:27.285Z,13.10
2022-10-05T17:44:19.598Z,13.00
2022-10-05T17:46:50.106Z,13.00
2022-10-05T17:49:39.838Z,12.90
2022-10-05T17:52:41.275Z,12.90
2022-10-05T17:55:28.343Z,12.90
2022-10-05T17:58:02.273Z,12.90
2022-10-05T18:00:42.226Z,12.80
2022-10-05T18:03:47.169Z,12.80
2022-10-05T18:06:47.802Z,12.80
2022-10-05T18:09:53.847Z,12.70
2022-10-05T18:12:42.012Z,12.70
2022-10-05T18:15:44.955Z,12.70
2022-10-05T18:18:47.707Z,12.70
2022-10-05T18:21:38.002Z,12.60
2022-10-05T18:24:39.149Z,12.60
2022-10-05T18:27:49.194Z,12.60
2022-10-05T18:30:22.490Z,12.60
2022-10-05T18:33:28.300Z,12.60
2022-10-05T18:36:15.613Z,12.60
2022-10-05T18:38:53.309Z,12.60
2022-10-05T18:41:38.702Z,12.60
2022-10-05T18:44:25.509Z,12.60
2022-10-05T18:47:02.562Z,12.60
2022-10-05T18:49:49.129Z,12.60
2022-10-05T18:52:27.221Z,12.60
2022-10-05T18:55:04.604Z,12.60
2022-10-05T18:58:14.738Z,12.60
2022-10-05T19:01:07.164Z,12.60
2022-10-05T19:03:46.561Z,12.60
2022-10-05T19:06:24.526Z,12.60
2022-10-05T19:09:04.909Z,12.60
2022-10-05T19:11:41.268Z,12.60
2022-10-05T19:14:19.092Z,12.70
2022-10-05T19:17:04.027Z,12.70
2022-10-05T19:19:49.041Z,12.70
2022-10-05T19:22:27.287Z,12.70
2022-10-05T19:25:17.673Z,12.60
2022-10-05T19:27:55.917Z,12.60
2022-10-05T19:30:27.629Z,12.60
2022-10-05T19:33:21.803Z,12.60
2022-10-05T19:36:02.961Z,12.50
2022-10-05T19:38:43.108Z,12.50
2022-10-05T19:41:17.049Z,12.40
2022-10-05T19:44:02.250Z,12.40
2022-10-05T19:46:59.975Z,12.30
2022-10-05T19:49:51.167Z,12.30
2022-10-05T19:52:28.586Z,12.30
2022-10-05T19:55:07.274Z,12.20
2022-10-05T19:57:35.981Z,12.20
2022-10-05T20:00:05.290Z,12.20
2022-10-05T20:02:38.703Z,12.20
2022-10-05T20:05:15.475Z,12.20
2022-10-05T20:07:44.224Z,12.20
2022-10-05T20:10:30.991Z,12.20
2022-10-05T20:13:01.394Z,12.20
2022-10-05T20:15:49.239Z,12.20
2022-10-05T20:18:58.454Z,12.20
2022-10-05T20:21:50.060Z,12.20
2022-10-05T20:24:20.767Z,12.20
2022-10-05T20:27:05.502Z,12.20
2022-10-05T20:29:36.747Z,12.20
2022-10-05T20:32:08.958Z,12.10
2022-10-05T20:34:41.017Z,12.10
2022-10-05T20:37:11.692Z,12.10
2022-10-05T20:39:41.181Z,12.10
2022-10-05T20:42:10.414Z,12.10
2022-10-05T20:44:39.751Z,12.00
2022-10-05T20:47:10.544Z,12.00
2022-10-05T20:49:41.379Z,12.00
2022-10-05T20:52:16.362Z,12.00
2022-10-05T20:57:15.066Z,11.90
2022-10-05T20:59:44.234Z,11.90
2022-10-05T21:02:12.878Z,11.90
2022-10-05T21:04:46.808Z,11.90
2022-10-05T21:07:19.834Z,12.00
2022-10-05T21:09:48.594Z,11.90
2022-10-05T21:12:17.718Z,11.90
2022-10-05T21:14:47.406Z,11.90
2022-10-05T21:17:16.064Z,11.80
2022-10-05T21:19:45.159Z,11.70
2022-10-05T21:22:13.746Z,11.70
2022-10-05T21:24:43.870Z,11.60
2022-10-05T21:27:12.595Z,11.50
2022-10-05T21:29:41.595Z,11.50
2022-10-05T21:32:11.879Z,11.40
2022-10-05T21:34:41.102Z,11.30
2022-10-05T21:37:10.457Z,11.30
2022-10-05T21:39:39.014Z,11.30
2022-10-05T21:42:09.136Z,11.20
2022-10-05T21:44:37.767Z,11.20
2022-10-05T21:47:07.349Z,11.10
2022-10-05T21:49:36.783Z,11.00
2022-10-05T21:52:07.023Z,10.90
2022-10-05T21:54:36.247Z,10.90
2022-10-05T21:57:05.548Z,10.80
2022-10-05T21:59:36.582Z,10.80
2022-10-05T22:02:05.850Z,10.70
2022-10-05T22:04:34.771Z,10.70
2022-10-05T22:07:07.527Z,10.50
2022-10-05T22:09:36.147Z,10.50
2022-10-05T22:12:05.660Z,10.60
2022-10-05T22:14:40.502Z,10.50
2022-10-05T22:17:14.956Z,10.50
2022-10-05T22:19:43.711Z,10.50
2022-10-05T22:22:12.509Z,10.20
2022-10-05T22:24:41.442Z,10.40
2022-10-05T22:27:10.412Z,10.40
2022-10-05T22:29:41.022Z,10.40
2022-10-05T22:32:10.217Z,10.50
2022-10-05T22:34:39.122Z,10.50
2022-10-05T22:37:08.450Z,10.50
2022-10-05T22:39:37.249Z,10.50
2022-10-05T22:42:06.171Z,10.50
2022-10-05T22:44:35.063Z,10.50
2022-10-05T22:47:05.607Z,10.60
2022-10-05T22:49:34.491Z,10.60
2022-10-05T22:52:03.149Z,10.60
2022-10-05T22:54:36.545Z,10.60
2022-10-05T22:57:05.991Z,10.60
2022-10-05T22:59:34.725Z,10.60
2022-10-05T23:02:05.038Z,10.50
2022-10-05T23:04:34.076Z,10.50
2022-10-05T23:07:03.060Z,10.60
2022-10-05T23:09:31.715Z,10.60
2022-10-05T23:12:00.342Z,10.60
2022-10-05T23:14:30.947Z,10.60
2022-10-05T23:16:59.781Z,10.60
2022-10-05T23:19:29.908Z,10.70
2022-10-05T23:21:58.461Z,10.60
2022-10-05T23:24:27.080Z,10.60
2022-10-05T23:26:55.744Z,10.50
2022-10-05T23:29:24.383Z,10.50
2022-10-05T23:31:52.990Z,10.40
2022-10-05T23:34:21.668Z,10.30
2022-10-05T23:36:51.801Z,10.20
2022-10-05T23:39:20.658Z,10.20
2022-10-05T23:41:49.486Z,10.10
2022-10-05T23:44:18.129Z,10.10
2022-10-05T23:46:46.773Z,10.10
2022-10-05T23:49:15.533Z,10.10
2022-10-05T23:51:45.067Z,10.00
2022-10-05T23:54:15.127Z,10.00
2022-10-05T23:56:44.253Z,10.00
2022-10-05T23:59:12.838Z,10.00
